Time;durP1;ratioP1;P1;durP2;ratioP2;P2;SDS_P1;SDS_P2;PMS_P1;PMS_P2;Temp;Humidity;BMP_temperature;BMP_pressure;BME280_temperature;BME280_humidity;BME280_pressure;Samples;Min_cycle;Max_cycle;Signal;HPM_P1;HPM_P2
2022/08/05 00:01:19;;;;;;;7.70;6.10;;;17.50;99.90;;;;;;10430872;28;20149;-80
2022/08/05 00:06:20;;;;;;;5.88;5.28;;;17.50;99.90;;;;;;10428689;28;20094;-80
2022/08/05 00:11:20;;;;;;;7.35;5.80;;;17.50;99.90;;;;;;10441757;28;20450;-80
2022/08/05 00:16:21;;;;;;;6.95;5.05;;;17.50;99.90;;;;;;10426563;28;20025;-79
2022/08/05 00:21:21;;;;;;;7.03;5.20;;;17.50;99.90;;;;;;10422137;28;20180;-80
2022/08/05 00:26:22;;;;;;;6.95;5.00;;;17.50;99.90;;;;;;10422388;28;20441;-80
2022/08/05 00:31:22;;;;;;;8.13;5.75;;;17.60;99.90;;;;;;10427164;28;20552;-80
2022/08/05 00:36:23;;;;;;;6.35;5.25;;;17.60;99.90;;;;;;10420819;28;20037;-80
2022/08/05 00:41:32;;;;;;;7.63;5.22;;;17.50;99.90;;;;;;10422040;28;20041;-80
2022/08/05 00:46:32;;;;;;;8.52;5.47;;;17.40;99.90;;;;;;10428560;28;20025;-80
2022/08/05 00:51:33;;;;;;;7.28;4.97;;;17.40;99.90;;;;;;10426012;28;20037;-80
2022/08/05 00:56:33;;;;;;;10.55;5.68;;;17.40;99.90;;;;;;10422818;28;20036;-80
2022/08/05 01:01:34;;;;;;;7.90;5.38;;;17.50;99.90;;;;;;10433214;28;20455;-80
2022/08/05 01:06:34;;;;;;;7.28;5.20;;;17.50;99.90;;;;;;10431400;28;20382;-80
2022/08/05 01:11:38;;;;;;;7.35;6.05;;;17.50;99.90;;;;;;10415543;28;20112;-80
2022/08/05 01:16:48;;;;;;;7.90;5.47;;;17.50;99.90;;;;;;10409765;28;20424;-80
2022/08/05 01:22:17;;;;;;;8.63;5.50;;;17.60;99.90;;;;;;10416583;28;20045;-80
2022/08/05 01:27:24;;;;;;;8.50;5.90;;;17.60;99.90;;;;;;10423379;28;20021;-80
2022/08/05 01:32:27;;;;;;;80.50;14.93;;;17.60;99.90;;;;;;10414265;28;20098;-80
2022/08/05 01:37:42;;;;;;;11.25;4.93;;;17.60;99.90;;;;;;10422481;28;20120;-80
2022/08/05 01:42:45;;;;;;;43.13;39.60;;;17.50;99.90;;;;;;10419558;28;20083;-80
2022/08/05 01:47:48;;;;;;;1999.90;999.90;;;17.50;99.90;;;;;;10419120;28;20310;-80
2022/08/05 01:52:51;;;;;;;606.35;315.00;;;17.50;99.90;;;;;;10426156;28;20056;-79
2022/08/05 01:57:54;;;;;;;8.75;5.82;;;17.30;99.90;;;;;;10433761;28;20397;-79
2022/08/05 02:02:58;;;;;;;8.50;5.60;;;17.20;99.90;;;;;;10425553;28;20145;-80
2022/08/05 02:07:59;;;;;;;7.50;5.53;;;17.30;99.90;;;;;;10431441;28;20025;-80
2022/08/05 02:13:07;;;;;;;7.82;5.25;;;17.20;99.90;;;;;;10426159;28;20025;-81
2022/08/05 02:18:14;;;;;;;9.52;5.60;;;17.10;99.90;;;;;;10426651;28;20613;-80
2022/08/05 02:23:18;;;;;;;8.70;5.57;;;17.10;99.90;;;;;;10428236;28;20786;-80
2022/08/05 02:28:29;;;;;;;9.57;5.85;;;17.00;99.90;;;;;;10434606;28;20030;-80
2022/08/05 02:33:39;;;;;;;7.20;5.40;;;16.80;99.90;;;;;;10438940;28;20031;-80
2022/08/05 02:38:41;;;;;;;5.90;5.18;;;16.70;99.90;;;;;;10444075;28;20500;-80
2022/08/05 02:43:45;;;;;;;5.20;2.35;;;16.60;99.90;;;;;;10441024;28;20444;-80
2022/08/05 02:48:47;;;;;;;4.03;2.50;;;16.50;99.90;;;;;;10440547;28;20481;-79
2022/08/05 02:53:48;;;;;;;3.58;2.50;;;16.50;99.90;;;;;;10423593;28;20029;-80
2022/08/05 02:58:51;;;;;;;6.25;2.22;;;16.50;99.90;;;;;;10425800;28;20556;-80
2022/08/05 03:03:58;;;;;;;7.88;2.58;;;16.40;99.90;;;;;;10428596;28;20061;-80
2022/08/05 03:08:59;;;;;;;7.63;3.03;;;16.40;99.90;;;;;;10428935;28;20045;-81
2022/08/05 03:14:00;;;;;;;2.75;1.90;;;16.30;99.90;;;;;;10433182;28;20382;-81
2022/08/05 03:19:01;;;;;;;2.92;1.73;;;16.30;99.90;;;;;;10430335;28;20760;-80
2022/08/05 03:24:02;;;;;;;9.23;3.83;;;16.30;99.90;;;;;;10424366;28;20059;-81
2022/08/05 03:29:03;;;;;;;5.40;3.50;;;16.20;99.90;;;;;;10425681;28;20021;-80
2022/08/05 03:34:04;;;;;;;5.20;3.05;;;16.20;99.90;;;;;;10428495;28;20029;-80
2022/08/05 03:39:08;;;;;;;41.42;15.02;;;16.10;99.90;;;;;;10416617;28;20034;-80
2022/08/05 03:44:08;;;;;;;5.25;3.60;;;16.00;99.90;;;;;;10426087;28;20392;-80
2022/08/05 03:49:09;;;;;;;4.95;3.15;;;16.00;99.90;;;;;;10401183;28;20029;-79
2022/08/05 03:54:38;;;;;;;1999.90;999.90;;;16.10;99.90;;;;;;10423893;28;20151;-81
2022/08/05 03:59:45;;;;;;;5.88;3.60;;;16.10;99.90;;;;;;10420077;28;20041;-79
2022/08/05 04:04:46;;;;;;;7.18;4.10;;;16.10;99.90;;;;;;10421675;28;20048;-80
2022/08/05 04:09:47;;;;;;;1999.90;999.90;;;16.20;99.90;;;;;;10420821;28;20036;-81
2022/08/05 04:14:48;;;;;;;8.25;4.00;;;16.20;99.90;;;;;;10417766;28;20029;-81
2022/08/05 04:19:48;;;;;;;7.00;4.90;;;16.30;99.90;;;;;;10425817;28;20037;-81
2022/08/05 04:24:49;;;;;;;1999.90;999.90;;;16.30;99.90;;;;;;10422604;28;20059;-80
2022/08/05 04:29:50;;;;;;;77.57;7.53;;;16.30;99.90;;;;;;10416115;28;20174;-83
2022/08/05 04:34:50;;;;;;;8.60;4.60;;;16.30;99.90;;;;;;10429435;28;20033;-83
2022/08/05 04:39:51;;;;;;;56.72;13.35;;;16.40;99.90;;;;;;10399764;28;20030;-83
2022/08/05 04:44:51;;;;;;;9.68;4.82;;;16.50;99.90;;;;;;10397271;28;20115;-83
2022/08/05 04:49:52;;;;;;;12.20;5.03;;;16.60;99.90;;;;;;10415027;28;20036;-83
2022/08/05 04:54:52;;;;;;;8.75;4.95;;;16.80;99.90;;;;;;10435638;28;20025;-82
2022/08/05 04:59:53;;;;;;;6.95;3.90;;;16.90;99.90;;;;;;10431100;28;20052;-83
2022/08/05 05:04:54;;;;;;;6.63;4.07;;;17.10;99.90;;;;;;10417251;28;20067;-82
2022/08/05 05:09:54;;;;;;;9.85;3.88;;;17.20;99.90;;;;;;10427267;28;20110;-83
2022/08/05 05:14:55;;;;;;;11.52;4.53;;;17.50;99.90;;;;;;10424103;28;20496;-83
2022/08/05 05:19:55;;;;;;;11.23;4.13;;;17.70;99.90;;;;;;10436296;28;20041;-83
2022/08/05 05:24:56;;;;;;;65.75;19.25;;;17.80;99.90;;;;;;10438376;28;20044;-83
2022/08/05 05:29:57;;;;;;;21.08;6.32;;;18.10;99.90;;;;;;10422514;28;20384;-82
2022/08/05 05:34:57;;;;;;;43.20;9.27;;;18.40;99.90;;;;;;10444077;28;20040;-84
2022/08/05 05:39:58;;;;;;;37.83;9.15;;;18.60;99.90;;;;;;10435110;28;20040;-83
2022/08/05 05:44:58;;;;;;;17.98;7.72;;;18.80;99.90;;;;;;10407662;28;20211;-86
2022/08/05 05:49:59;;;;;;;14.65;11.85;;;19.00;99.90;;;;;;10425250;28;20507;-86
2022/08/05 05:55:01;;;;;;;17.88;6.82;;;19.20;99.90;;;;;;10426164;28;20552;-84
2022/08/05 06:00:05;;;;;;;12.45;6.60;;;19.50;99.90;;;;;;10423632;28;20030;-84
2022/08/05 06:05:07;;;;;;;7.50;5.68;;;19.80;99.90;;;;;;10430741;28;20069;-84
2022/08/05 06:10:09;;;;;;;9.55;6.57;;;20.00;99.90;;;;;;10424308;28;20021;-84
2022/08/05 06:15:10;;;;;;;18.40;6.88;;;20.20;99.90;;;;;;10413647;28;20489;-85
2022/08/05 06:20:11;;;;;;;11.55;7.18;;;20.40;99.90;;;;;;10439323;28;20108;-85
2022/08/05 06:25:12;;;;;;;20.10;7.93;;;20.60;99.90;;;;;;10438717;28;20395;-85
2022/08/05 06:30:14;;;;;;;12.48;6.93;;;20.80;99.90;;;;;;10419991;28;20392;-85
2022/08/05 06:35:15;;;;;;;15.32;8.00;;;21.00;99.90;;;;;;10418933;28;20013;-85
2022/08/05 06:40:16;;;;;;;17.05;8.45;;;21.30;99.90;;;;;;10406423;28;20493;-85
2022/08/05 06:45:16;;;;;;;13.95;7.97;;;21.50;99.90;;;;;;10386391;28;20029;-85
2022/08/05 06:50:17;;;;;;;15.65;8.20;;;21.80;99.90;;;;;;10406377;28;20025;-85
2022/08/05 06:55:18;;;;;;;16.73;7.90;;;22.00;99.90;;;;;;10436372;28;20025;-85
2022/08/05 07:00:19;;;;;;;16.42;8.30;;;22.20;99.90;;;;;;10406588;28;20024;-85
2022/08/05 07:05:20;;;;;;;10.38;7.40;;;22.50;99.90;;;;;;10414276;28;20143;-85
2022/08/05 07:10:21;;;;;;;14.88;7.10;;;22.80;99.90;;;;;;10432428;28;20108;-86
2022/08/05 07:20:41;;;;;;;1999.90;999.90;;;25.70;98.80;;;;;;10422986;28;20037;-84
2022/08/05 07:25:41;;;;;;;12.20;4.47;;;27.00;94.30;;;;;;10413598;28;20028;-83
2022/08/05 07:30:42;;;;;;;8.27;4.78;;;27.80;93.60;;;;;;10423555;28;20017;-83
2022/08/05 07:35:43;;;;;;;12.35;5.32;;;28.00;92.20;;;;;;10414600;28;20017;-83
2022/08/05 07:40:44;;;;;;;5.78;3.38;;;27.80;91.80;;;;;;10420387;28;20118;-83
2022/08/05 07:45:45;;;;;;;7.75;3.50;;;27.60;91.10;;;;;;10433393;28;20071;-84
2022/08/05 07:50:45;;;;;;;6.50;3.20;;;27.40;89.50;;;;;;10423792;28;20575;-82
2022/08/05 07:55:46;;;;;;;6.70;3.97;;;27.40;89.50;;;;;;10423445;28;20052;-83
2022/08/05 08:00:46;;;;;;;7.65;3.58;;;27.40;88.60;;;;;;10428767;28;20527;-82
2022/08/05 08:05:50;;;;;;;6.18;3.00;;;27.60;88.90;;;;;;10406561;28;20493;-82
2022/08/05 08:10:50;;;;;;;7.97;2.88;;;27.70;88.80;;;;;;10399660;28;20013;-82
2022/08/05 08:15:51;;;;;;;6.72;3.58;;;27.90;88.10;;;;;;10427110;28;20040;-83
2022/08/05 08:20:51;;;;;;;8.27;4.05;;;28.20;85.80;;;;;;10398754;28;20135;-83
2022/08/05 08:25:52;;;;;;;7.53;2.50;;;28.30;85.60;;;;;;10417174;28;20112;-82
2022/08/05 08:30:52;;;;;;;6.65;2.80;;;28.50;85.60;;;;;;10400852;28;20113;-82
2022/08/05 08:35:54;;;;;;;4.53;2.55;;;28.70;84.20;;;;;;10436095;28;20049;-83
2022/08/05 08:40:55;;;;;;;5.80;2.63;;;28.90;82.40;;;;;;10401596;28;20044;-82
2022/08/05 08:45:57;;;;;;;3.67;2.80;;;29.30;83.50;;;;;;10399378;28;20084;-83
2022/08/05 08:50:59;;;;;;;4.07;2.85;;;29.50;81.40;;;;;;10433112;28;20556;-83
2022/08/05 08:56:02;;;;;;;6.25;3.40;;;29.70;81.20;;;;;;10428654;28;20029;-82
2022/08/05 09:01:04;;;;;;;6.63;3.47;;;29.80;78.90;;;;;;10429556;28;20033;-82
2022/08/05 09:06:05;;;;;;;4.47;3.20;;;30.00;77.90;;;;;;10417028;28;20095;-82
2022/08/05 09:11:07;;;;;;;3.85;2.50;;;30.00;78.00;;;;;;10411413;28;20091;-83
2022/08/05 09:16:10;;;;;;;5.40;3.17;;;30.30;77.40;;;;;;10407609;28;20022;-83
2022/08/05 09:21:11;;;;;;;3.90;3.03;;;30.70;77.60;;;;;;10411494;28;20449;-83
2022/08/05 09:26:16;;;;;;;3.72;2.80;;;31.00;74.70;;;;;;10419111;28;20105;-82
2022/08/05 09:31:17;;;;;;;4.30;2.67;;;31.10;74.70;;;;;;10423100;28;20484;-83
2022/08/05 09:36:18;;;;;;;4.07;2.63;;;31.40;72.50;;;;;;10389424;28;20116;-83
2022/08/05 09:41:18;;;;;;;4.55;3.28;;;31.50;73.30;;;;;;10415177;28;20117;-83
2022/08/05 09:46:26;;;;;;;4.60;3.33;;;31.70;72.50;;;;;;10424748;28;20104;-83
2022/08/05 09:51:36;;;;;;;7.53;4.00;;;31.70;72.00;;;;;;10407432;28;20052;-82
2022/08/05 09:56:38;;;;;;;3.42;2.00;;;31.80;70.70;;;;;;10424586;28;20467;-82
2022/08/05 10:01:42;;;;;;;4.03;3.83;;;31.80;68.40;;;;;;10420703;28;20112;-82
2022/08/05 10:06:53;;;;;;;;;;;31.90;71.00;;;;;;10419680;28;20045;-83
2022/08/05 10:11:53;;;;;;;2.10;2.08;;;32.10;66.40;;;;;;10418083;28;19941;-82
2022/08/05 10:16:55;;;;;;;1.10;1.10;;;32.30;69.60;;;;;;10430724;28;20488;-84
2022/08/05 10:21:56;;;;;;;1.02;1.02;;;32.30;67.40;;;;;;10417562;28;20037;-83
2022/08/05 10:26:58;;;;;;;191.20;183.02;;;32.40;68.70;;;;;;10432505;28;20087;-83
2022/08/05 10:32:00;;;;;;;363.35;184.45;;;32.40;67.80;;;;;;10437960;28;20027;-83
2022/08/05 10:37:01;;;;;;;1999.90;999.90;;;32.50;66.70;;;;;;10429117;28;20063;-83
2022/08/05 10:42:14;;;;;;;2.42;2.05;;;32.70;67.50;;;;;;10432402;28;20105;-82
2022/08/05 10:47:16;;;;;;;310.40;103.38;;;32.90;60.70;;;;;;10412754;28;20029;-82
2022/08/05 10:52:39;;;;;;;2.90;2.40;;;32.90;65.80;;;;;;10418202;28;20445;-82
2022/08/05 10:57:42;;;;;;;80.28;42.72;;;33.10;65.20;;;;;;10419452;28;20023;-82
2022/08/05 11:03:04;;;;;;;132.98;93.30;;;33.10;63.40;;;;;;10433029;28;20052;-84
2022/08/05 11:08:08;;;;;;;4.10;2.35;;;33.10;64.30;;;;;;10419888;28;20115;-82
2022/08/05 11:13:09;;;;;;;4.80;1.95;;;33.30;65.40;;;;;;10422145;28;20565;-84
2022/08/05 11:18:26;;;;;;;0.00;0.00;;;33.40;62.60;;;;;;10420835;28;20476;-83
2022/08/05 11:24:05;;;;;;;0.00;0.00;;;33.50;64.40;;;;;;10425282;28;20037;-84
2022/08/05 11:29:07;;;;;;;573.95;118.22;;;33.60;62.80;;;;;;10409057;28;20037;-83
2022/08/05 11:34:07;;;;;;;561.85;115.15;;;33.30;61.90;;;;;;10421890;28;20033;-83
2022/08/05 11:39:10;;;;;;;1999.90;999.90;;;33.40;62.00;;;;;;10442816;28;20025;-83
2022/08/05 11:44:14;;;;;;;1999.90;999.90;;;33.40;61.00;;;;;;10413133;28;20066;-82
2022/08/05 11:49:16;;;;;;;;;;;33.40;63.00;;;;;;10402767;28;20026;-83
2022/08/05 11:54:26;;;;;;;0.03;0.03;;;33.70;60.50;;;;;;10427248;28;19939;-83
2022/08/05 11:59:29;;;;;;;6.70;6.40;;;33.80;62.00;;;;;;10410672;28;20024;-84
2022/08/05 12:04:37;;;;;;;2.80;2.08;;;33.80;60.70;;;;;;10423957;28;20057;-83
2022/08/05 12:09:43;;;;;;;4.88;2.22;;;33.80;61.20;;;;;;10396373;28;20021;-83
2022/08/05 12:14:44;;;;;;;174.43;75.03;;;33.90;60.20;;;;;;10438609;28;20013;-84
2022/08/05 12:19:50;;;;;;;136.40;14.00;;;34.00;59.70;;;;;;10420328;28;20423;-83
2022/08/05 12:24:51;;;;;;;1.30;1.30;;;34.10;61.20;;;;;;10413089;28;20489;-83
2022/08/05 12:30:05;;;;;;;0.10;0.10;;;34.30;59.30;;;;;;10403261;28;20029;-82
2022/08/05 12:35:07;;;;;;;0.00;0.00;;;34.30;59.30;;;;;;10426766;28;20491;-83
2022/08/05 12:40:08;;;;;;;0.00;0.00;;;34.20;59.40;;;;;;10431109;28;20291;-81
2022/08/05 12:45:09;;;;;;;126.72;115.65;;;34.30;59.50;;;;;;10423731;28;20037;-82
2022/08/05 12:50:15;;;;;;;204.85;93.32;;;34.40;59.10;;;;;;10424034;28;20029;-83
2022/08/05 12:55:20;;;;;;;34.05;2.67;;;34.20;57.60;;;;;;10431298;28;20017;-81
2022/08/05 13:00:24;;;;;;;1.35;1.25;;;34.10;57.90;;;;;;10425561;28;20683;-82
2022/08/05 13:05:25;;;;;;;0.88;0.88;;;34.20;59.60;;;;;;10423628;28;20417;-81
2022/08/05 13:10:25;;;;;;;57.58;4.60;;;34.20;58.50;;;;;;10415025;28;20034;-81
2022/08/05 13:15:30;;;;;;;133.13;26.55;;;34.10;57.90;;;;;;10428410;28;20589;-82
2022/08/05 13:20:34;;;;;;;0.50;0.50;;;34.10;59.10;;;;;;10425663;28;20493;-82
2022/08/05 13:25:35;;;;;;;265.50;115.32;;;34.20;59.80;;;;;;10428871;28;20037;-83
2022/08/05 13:30:36;;;;;;;10.02;9.30;;;34.40;58.70;;;;;;10430628;28;20025;-82
2022/08/05 13:35:36;;;;;;;562.95;249.52;;;34.20;59.10;;;;;;10424453;28;20108;-84
2022/08/05 13:40:37;;;;;;;1.17;0.98;;;34.20;58.30;;;;;;10414780;28;20036;-82
2022/08/05 13:45:37;;;;;;;169.05;157.52;;;34.20;58.60;;;;;;10417051;28;20034;-82
2022/08/05 13:50:38;;;;;;;13.07;12.23;;;34.10;58.50;;;;;;10431854;28;20026;-83
2022/08/05 13:55:39;;;;;;;4.20;3.88;;;34.00;58.30;;;;;;10412571;28;20033;-83
2022/08/05 14:00:39;;;;;;;8.98;0.70;;;33.90;58.50;;;;;;10430596;28;20044;-82
2022/08/05 14:05:40;;;;;;;0.70;0.63;;;33.60;56.80;;;;;;10418460;28;20477;-84
2022/08/05 14:10:41;;;;;;;0.38;0.35;;;33.30;58.60;;;;;;10423595;28;20033;-85
2022/08/05 14:15:41;;;;;;;23.73;1.55;;;33.30;59.20;;;;;;10405036;28;20029;-82
2022/08/05 14:20:42;;;;;;;0.45;0.45;;;33.20;59.60;;;;;;10420049;28;20596;-84
2022/08/05 14:25:42;;;;;;;6.78;1.85;;;33.10;60.40;;;;;;10429083;28;20033;-83
2022/08/05 14:30:43;;;;;;;128.88;14.85;;;33.00;60.10;;;;;;10442003;28;20025;-84
2022/08/05 14:35:43;;;;;;;0.10;0.10;;;32.80;58.60;;;;;;10420838;28;20038;-82
2022/08/05 14:40:44;;;;;;;0.38;0.38;;;32.40;59.40;;;;;;10427180;28;20067;-83
2022/08/05 14:45:44;;;;;;;0.95;0.38;;;32.30;61.30;;;;;;10416499;28;20022;-83
2022/08/05 14:50:45;;;;;;;1.65;0.52;;;32.20;60.70;;;;;;10416943;28;20481;-83
2022/08/05 14:55:46;;;;;;;0.68;0.68;;;32.10;61.10;;;;;;10413615;28;20689;-82
2022/08/05 15:00:46;;;;;;;0.40;0.40;;;32.00;61.70;;;;;;10427069;28;20078;-83
2022/08/05 15:05:47;;;;;;;818.05;115.50;;;32.00;62.20;;;;;;10429655;28;20124;-84
2022/08/05 15:10:48;;;;;;;2.78;2.05;;;31.90;61.80;;;;;;10436741;28;20028;-85
2022/08/05 15:15:49;;;;;;;3.45;2.30;;;31.80;62.80;;;;;;10404531;28;20029;-84
2022/08/05 15:20:49;;;;;;;3.83;2.42;;;31.80;62.90;;;;;;10415969;28;20033;-85
2022/08/05 15:25:50;;;;;;;8.77;4.63;;;31.70;62.10;;;;;;10426517;28;20033;-84
2022/08/05 15:30:51;;;;;;;11.27;8.45;;;31.60;62.20;;;;;;10411175;28;20029;-84
2022/08/05 15:35:52;;;;;;;3.05;2.58;;;31.50;62.30;;;;;;10425760;28;20512;-84
2022/08/05 15:40:52;;;;;;;4.03;2.58;;;31.50;63.10;;;;;;10422694;28;20041;-83
2022/08/05 15:45:53;;;;;;;3.08;2.28;;;31.50;62.30;;;;;;10433417;28;20029;-83
2022/08/05 15:50:53;;;;;;;3.40;1.65;;;31.40;62.60;;;;;;10430964;28;20834;-84
2022/08/05 15:55:54;;;;;;;2.38;1.70;;;31.20;61.90;;;;;;10419510;28;20036;-84
2022/08/05 16:00:55;;;;;;;2.65;1.90;;;31.20;62.10;;;;;;10420304;28;20045;-84
2022/08/05 16:05:55;;;;;;;4.22;3.00;;;31.10;61.60;;;;;;10425754;28;20056;-83
2022/08/05 16:10:56;;;;;;;5.03;3.35;;;31.00;61.80;;;;;;10422638;28;20032;-84
2022/08/05 16:15:57;;;;;;;133.60;25.75;;;30.90;61.90;;;;;;10419991;28;20675;-85
2022/08/05 16:20:59;;;;;;;7.80;2.75;;;30.80;61.80;;;;;;10425164;28;20144;-83
2022/08/05 16:26:09;;;;;;;4.13;2.33;;;30.70;62.10;;;;;;10429860;28;20037;-84
2022/08/05 16:31:10;;;;;;;7.63;2.63;;;30.60;62.60;;;;;;10412830;28;20049;-83
2022/08/05 16:36:11;;;;;;;3.47;2.05;;;30.50;63.40;;;;;;10428968;28;20384;-85
2022/08/05 16:41:12;;;;;;;6.80;3.17;;;30.40;63.80;;;;;;10433315;28;20171;-85
2022/08/05 16:46:12;;;;;;;20.30;12.02;;;30.40;66.30;;;;;;10411755;28;20094;-84
2022/08/05 16:51:14;;;;;;;3.92;2.92;;;30.00;69.30;;;;;;10428788;28;20123;-83
2022/08/05 16:56:15;;;;;;;39.00;10.88;;;29.60;70.00;;;;;;10431984;28;20541;-83
2022/08/05 17:01:15;;;;;;;3.65;2.30;;;29.20;71.20;;;;;;10430969;28;20100;-84
2022/08/05 17:06:16;;;;;;;4.65;2.63;;;28.90;71.60;;;;;;10434944;28;20049;-83
2022/08/05 17:11:17;;;;;;;4.28;2.50;;;28.50;71.60;;;;;;10414915;28;20436;-83
2022/08/05 17:16:17;;;;;;;6.38;2.95;;;28.20;72.90;;;;;;10436754;28;20044;-82
2022/08/05 17:21:18;;;;;;;4.07;2.63;;;27.90;73.20;;;;;;10414160;28;20384;-83
2022/08/05 17:26:19;;;;;;;3.58;2.72;;;27.60;73.50;;;;;;10407399;28;20024;-83
2022/08/05 17:31:19;;;;;;;9.13;2.92;;;27.40;74.90;;;;;;10429207;28;20389;-84
2022/08/05 17:36:20;;;;;;;4.53;2.85;;;27.10;74.60;;;;;;10399008;28;20029;-84
2022/08/05 17:41:21;;;;;;;3.92;2.50;;;26.90;76.10;;;;;;10402815;28;20045;-84
2022/08/05 17:46:22;;;;;;;3.65;3.03;;;26.70;77.10;;;;;;10420242;28;20354;-84
2022/08/05 17:51:23;;;;;;;3.97;3.08;;;26.50;77.00;;;;;;10412750;28;20029;-84
2022/08/05 17:56:23;;;;;;;35.45;4.53;;;26.20;77.50;;;;;;10427060;28;20547;-84
2022/08/05 18:01:24;;;;;;;5.35;4.85;;;26.20;78.80;;;;;;10432833;28;20130;-84
2022/08/05 18:06:24;;;;;;;4.72;1.50;;;26.00;79.30;;;;;;10405727;28;20048;-83
2022/08/05 18:11:25;;;;;;;4.68;2.17;;;25.80;79.30;;;;;;10420002;28;20092;-84
2022/08/05 18:16:26;;;;;;;103.90;46.08;;;25.70;80.50;;;;;;10425555;28;20033;-84
2022/08/05 18:21:26;;;;;;;5.05;2.45;;;25.40;80.40;;;;;;10421023;28;20041;-84
2022/08/05 18:26:27;;;;;;;6.82;4.22;;;25.20;81.00;;;;;;10415014;28;20505;-84
2022/08/05 18:31:28;;;;;;;5.88;4.63;;;24.90;81.50;;;;;;10423507;28;20045;-84
2022/08/05 18:36:28;;;;;;;7.70;4.65;;;24.80;81.80;;;;;;10421222;28;20039;-83
2022/08/05 18:41:29;;;;;;;8.63;4.40;;;24.60;82.40;;;;;;10393798;28;20029;-84
2022/08/05 18:46:29;;;;;;;1999.90;999.90;;;24.40;83.20;;;;;;10423897;28;20520;-83
2022/08/05 18:56:49;;;;;;;1999.90;999.90;;;24.10;84.60;;;;;;10432909;28;20147;-83
2022/08/05 19:01:50;;;;;;;149.50;99.60;;;24.00;86.80;;;;;;10427526;28;20104;-84
2022/08/05 19:06:50;;;;;;;1999.90;999.90;;;23.90;86.20;;;;;;10426754;28;20053;-84
2022/08/05 19:11:51;;;;;;;1999.90;999.90;;;23.90;87.60;;;;;;10430770;28;20501;-83
2022/08/05 19:16:52;;;;;;;1999.90;999.90;;;23.80;88.40;;;;;;10427967;28;20048;-83
2022/08/05 19:21:52;;;;;;;45.08;34.33;;;23.60;87.90;;;;;;10441476;28;20041;-84
2022/08/05 19:26:53;;;;;;;0.50;0.50;;;23.50;88.30;;;;;;10437809;28;20112;-85
2022/08/05 19:31:55;;;;;;;6.72;6.53;;;23.50;88.70;;;;;;10410086;28;20033;-84
2022/08/05 19:36:55;;;;;;;193.23;80.93;;;23.30;90.10;;;;;;10402974;28;20060;-85
2022/08/05 19:41:56;;;;;;;413.38;43.47;;;23.30;90.80;;;;;;10424289;28;20082;-84
2022/08/05 19:46:57;;;;;;;11.80;8.10;;;23.20;90.30;;;;;;10426666;28;20033;-86
2022/08/05 19:51:59;;;;;;;12.57;8.43;;;23.30;90.70;;;;;;10431609;28;20473;-84
2022/08/05 19:57:02;;;;;;;12.25;9.00;;;23.10;91.10;;;;;;10427389;28;20385;-80
2022/08/05 20:02:02;;;;;;;13.50;8.20;;;23.10;90.50;;;;;;10425439;28;20072;-81
2022/08/05 20:07:03;;;;;;;11.85;7.93;;;23.30;90.20;;;;;;10429046;28;20135;-81
2022/08/05 20:12:03;;;;;;;13.27;8.70;;;23.30;90.30;;;;;;10426318;28;20033;-81
2022/08/05 20:17:05;;;;;;;16.13;8.95;;;23.30;90.70;;;;;;10420668;28;20037;-81
2022/08/05 20:22:05;;;;;;;11.98;9.20;;;23.20;90.80;;;;;;10433070;28;20033;-80
2022/08/05 20:27:06;;;;;;;12.57;9.65;;;23.00;91.10;;;;;;10422009;28;20063;-81
2022/08/05 20:32:07;;;;;;;13.00;9.90;;;22.80;91.50;;;;;;10432986;28;20028;-82
2022/08/05 20:37:07;;;;;;;12.77;8.45;;;22.70;91.70;;;;;;10431994;28;20488;-80
2022/08/05 20:42:08;;;;;;;15.05;9.38;;;22.60;91.70;;;;;;10407198;28;20044;-84
2022/08/05 20:47:08;;;;;;;11.10;8.18;;;22.50;92.20;;;;;;10434903;28;20132;-81
2022/08/05 20:52:09;;;;;;;11.05;8.00;;;22.50;92.20;;;;;;10407416;28;20037;-82
2022/08/05 20:57:10;;;;;;;9.70;7.63;;;22.50;92.20;;;;;;10426803;28;20068;-80
2022/08/05 21:02:10;;;;;;;12.23;8.65;;;22.50;92.50;;;;;;10425847;28;20032;-78
2022/08/05 21:07:11;;;;;;;10.40;8.55;;;22.40;92.60;;;;;;10414982;28;20544;-79
2022/08/05 21:12:11;;;;;;;12.35;8.77;;;22.40;92.60;;;;;;10429415;28;20029;-81
2022/08/05 21:17:12;;;;;;;13.27;10.23;;;22.30;93.20;;;;;;10429925;28;20051;-79
2022/08/05 21:22:13;;;;;;;14.88;9.68;;;22.20;93.40;;;;;;10421984;28;20493;-80
2022/08/05 21:27:13;;;;;;;13.50;9.10;;;22.10;93.40;;;;;;10424643;28;20036;-79
2022/08/05 21:32:14;;;;;;;15.40;10.60;;;22.10;93.70;;;;;;10431795;28;20102;-80
2022/08/05 21:37:14;;;;;;;16.35;11.13;;;22.00;93.70;;;;;;10422712;28;20499;-80
2022/08/05 21:42:15;;;;;;;16.40;10.85;;;21.90;94.10;;;;;;10450080;23;20092;-79
2022/08/05 21:47:16;;;;;;;15.70;10.48;;;21.80;94.30;;;;;;10425894;28;20025;-80
2022/08/05 21:52:17;;;;;;;16.27;11.10;;;21.80;94.60;;;;;;10417377;28;20057;-80
2022/08/05 21:57:17;;;;;;;18.52;10.80;;;21.60;95.20;;;;;;10415053;28;20382;-79
2022/08/05 22:02:18;;;;;;;17.85;12.27;;;21.60;95.20;;;;;;10425342;28;20041;-79
2022/08/05 22:07:18;;;;;;;19.48;11.68;;;21.50;95.80;;;;;;10418053;28;20037;-79
2022/08/05 22:12:19;;;;;;;18.05;12.45;;;21.50;96.10;;;;;;10443485;28;20025;-80
2022/08/05 22:17:20;;;;;;;15.70;12.25;;;21.40;96.80;;;;;;10444275;28;20083;-79
2022/08/05 22:22:20;;;;;;;16.75;12.95;;;21.40;97.50;;;;;;10451544;28;20033;-80
2022/08/05 22:32:41;;;;;;;20.55;13.02;;;21.20;98.50;;;;;;10439338;28;20504;-79
2022/08/05 22:37:42;;;;;;;17.45;13.10;;;21.00;99.30;;;;;;10448343;28;20037;-79
2022/08/05 22:42:42;;;;;;;15.60;11.82;;;20.90;99.90;;;;;;10464241;23;20064;-79
2022/08/05 22:47:43;;;;;;;17.48;13.07;;;20.80;99.90;;;;;;10449789;28;20052;-79
2022/08/05 22:52:44;;;;;;;17.42;13.63;;;20.80;99.90;;;;;;10451512;28;20033;-80
2022/08/05 22:57:44;;;;;;;18.35;12.07;;;20.80;99.90;;;;;;10447170;28;20447;-80
2022/08/05 23:02:46;;;;;;;18.42;12.88;;;20.80;99.90;;;;;;10441192;28;20064;-79
2022/08/05 23:07:47;;;;;;;20.70;12.23;;;20.80;99.90;;;;;;10448284;28;20029;-79
2022/08/05 23:12:49;;;;;;;17.85;12.90;;;20.80;99.90;;;;;;10449149;28;20380;-79
2022/08/05 23:17:49;;;;;;;21.80;13.27;;;20.80;99.90;;;;;;10450265;28;20503;-80
2022/08/05 23:22:50;;;;;;;18.65;13.05;;;20.80;99.90;;;;;;10432473;28;20029;-80
2022/08/05 23:27:51;;;;;;;17.10;12.82;;;20.80;99.90;;;;;;10449716;28;20040;-80
2022/08/05 23:32:51;;;;;;;18.85;14.15;;;20.80;99.90;;;;;;10446837;28;20571;-80
2022/08/05 23:37:52;;;;;;;17.08;13.07;;;20.80;99.90;;;;;;10445936;28;20505;-80
2022/08/05 23:42:52;;;;;;;19.25;12.90;;;20.70;99.90;;;;;;10447083;28;20060;-80
2022/08/05 23:47:53;;;;;;;20.52;12.65;;;20.70;99.90;;;;;;10448173;28;20028;-80
2022/08/05 23:52:54;;;;;;;17.60;12.23;;;20.70;99.90;;;;;;10444795;28;20037;-80
2022/08/05 23:57:54;;;;;;;21.60;14.15;;;20.70;99.90;;;;;;10445174;28;20504;-80
